createdAt,value
2018-05-27T00:00:16.035Z,89.10
2018-05-27T00:02:43.742Z,89.00
2018-05-27T00:05:11.269Z,89.00
2018-05-27T00:07:38.754Z,89.00
2018-05-27T00:10:07.000Z,89.20
2018-05-27T00:12:34.485Z,89.20
2018-05-27T00:15:02.717Z,89.60
2018-05-27T00:17:30.733Z,89.60
2018-05-27T00:19:58.973Z,90.00
2018-05-27T00:22:26.445Z,90.00
2018-05-27T00:24:53.929Z,90.00
2018-05-27T00:27:21.429Z,90.10
2018-05-27T00:29:48.916Z,90.10
2018-05-27T00:32:16.386Z,90.20
2018-05-27T00:34:44.652Z,90.20
2018-05-27T00:37:12.900Z,90.20
2018-05-27T00:39:40.515Z,90.20
2018-05-27T00:42:08.013Z,90.30
2018-05-27T00:44:35.871Z,90.40
2018-05-27T00:47:03.357Z,90.50
2018-05-27T00:49:30.974Z,90.60
2018-05-27T00:51:58.463Z,91.00
2018-05-27T00:54:25.937Z,90.80
2018-05-27T00:56:54.169Z,90.90
2018-05-27T00:59:21.694Z,91.00
2018-05-27T01:01:49.166Z,90.90
2018-05-27T01:04:16.664Z,90.90
2018-05-27T01:06:44.133Z,90.90
2018-05-27T01:09:12.389Z,91.10
2018-05-27T01:11:39.912Z,91.10
2018-05-27T01:14:07.384Z,91.20
2018-05-27T01:16:34.877Z,91.30
2018-05-27T01:19:03.117Z,91.60
2018-05-27T01:21:30.657Z,91.50
2018-05-27T01:23:58.133Z,91.50
2018-05-27T01:26:25.621Z,91.50
2018-05-27T01:28:53.893Z,91.60
2018-05-27T01:31:22.149Z,91.60
2018-05-27T01:33:49.634Z,91.50
2018-05-27T01:36:17.881Z,91.80
2018-05-27T01:38:45.365Z,91.80
2018-05-27T01:41:13.601Z,91.80
2018-05-27T01:43:41.573Z,91.80
2018-05-27T01:46:09.045Z,91.90
2018-05-27T01:48:36.561Z,91.90
2018-05-27T01:51:04.049Z,91.70
2018-05-27T01:53:31.558Z,91.90
2018-05-27T01:55:59.025Z,91.90
2018-05-27T01:58:26.576Z,91.80
2018-05-27T02:00:54.079Z,91.80
2018-05-27T02:03:21.550Z,91.90
2018-05-27T02:05:49.806Z,91.70
2018-05-27T02:08:17.277Z,91.70
2018-05-27T02:10:45.529Z,92.00
2018-05-27T02:13:13.006Z,91.90
2018-05-27T02:15:41.265Z,91.80
2018-05-27T02:18:08.737Z,91.80
2018-05-27T02:20:36.978Z,92.10
2018-05-27T02:23:04.466Z,92.00
2018-05-27T02:25:32.709Z,92.20
2018-05-27T02:28:00.203Z,92.10
2018-05-27T02:30:28.443Z,92.50
2018-05-27T02:32:55.967Z,92.40
2018-05-27T02:35:23.441Z,92.50
2018-05-27T02:37:50.937Z,92.30
2018-05-27T02:40:19.181Z,92.50
2018-05-27T02:42:46.650Z,92.40
2018-05-27T02:45:14.433Z,92.30
2018-05-27T02:47:42.670Z,92.00
2018-05-27T02:50:10.161Z,92.30
2018-05-27T02:52:38.397Z,91.90
2018-05-27T02:55:05.889Z,91.80
2018-05-27T02:57:34.136Z,91.80
2018-05-27T03:00:01.608Z,91.80
2018-05-27T03:02:29.093Z,91.80
2018-05-27T03:04:57.329Z,91.60
2018-05-27T03:07:24.813Z,91.60
2018-05-27T03:09:53.053Z,91.40
2018-05-27T03:12:20.550Z,91.40
2018-05-27T03:14:48.785Z,91.30
2018-05-27T03:17:16.273Z,91.60
2018-05-27T03:19:44.513Z,91.20
2018-05-27T03:22:11.981Z,91.20
2018-05-27T03:24:39.465Z,91.00
2018-05-27T03:27:07.709Z,91.20
2018-05-27T03:29:35.202Z,91.10
2018-05-27T03:32:03.438Z,91.10
2018-05-27T03:34:30.922Z,91.10
2018-05-27T03:36:59.158Z,91.40
2018-05-27T03:39:26.641Z,91.40
2018-05-27T03:41:54.885Z,91.30
2018-05-27T03:44:22.373Z,91.20
2018-05-27T03:46:50.623Z,91.50
2018-05-27T03:49:18.101Z,91.40
2018-05-27T03:51:46.359Z,91.50
2018-05-27T03:54:13.829Z,91.50
2018-05-27T03:56:41.319Z,91.50
2018-05-27T03:59:09.669Z,91.50
2018-05-27T04:01:37.933Z,91.40
2018-05-27T04:04:17.077Z,91.40
2018-05-27T04:06:57.173Z,91.60
2018-05-27T04:09:24.645Z,91.60
2018-05-27T04:11:52.117Z,91.80
2018-05-27T04:14:19.606Z,91.80
2018-05-27T04:16:47.861Z,91.60
2018-05-27T04:19:16.126Z,91.50
2018-05-27T04:21:43.594Z,91.60
2018-05-27T04:24:11.860Z,91.70
2018-05-27T04:26:39.330Z,91.70
2018-05-27T04:29:07.589Z,91.60
2018-05-27T04:31:35.054Z,91.50
2018-05-27T04:34:03.298Z,91.20
2018-05-27T04:36:30.814Z,91.20
2018-05-27T04:38:59.037Z,91.20
2018-05-27T04:41:26.521Z,91.10
2018-05-27T04:43:54.761Z,90.90
2018-05-27T04:46:22.244Z,90.90
2018-05-27T04:48:50.481Z,90.70
2018-05-27T04:51:17.970Z,90.60
2018-05-27T04:53:45.438Z,90.30
2018-05-27T04:56:13.674Z,89.80
2018-05-27T04:58:41.154Z,89.60
2018-05-27T05:01:08.620Z,88.90
2018-05-27T05:03:36.873Z,87.60
2018-05-27T05:06:04.345Z,87.50
2018-05-27T05:08:32.599Z,87.20
2018-05-27T05:11:00.065Z,87.10
2018-05-27T05:13:27.566Z,86.40
2018-05-27T05:15:55.033Z,85.00
2018-05-27T05:18:22.506Z,84.80
2018-05-27T05:20:50.004Z,84.60
2018-05-27T05:23:18.256Z,83.90
2018-05-27T05:25:45.737Z,83.90
2018-05-27T05:28:13.991Z,82.80
2018-05-27T05:30:41.476Z,82.80
2018-05-27T05:33:09.710Z,83.30
2018-05-27T05:35:37.199Z,83.20
2018-05-27T05:38:05.433Z,77.80
2018-05-27T05:40:32.909Z,77.70
2018-05-27T05:43:00.394Z,74.10
2018-05-27T05:45:27.868Z,72.10
2018-05-27T05:47:55.353Z,71.50
2018-05-27T05:50:22.821Z,70.30
2018-05-27T05:52:50.305Z,68.00
2018-05-27T05:55:18.531Z,70.00
2018-05-27T05:57:46.807Z,71.30
2018-05-27T06:00:14.276Z,71.30
2018-05-27T06:02:41.749Z,68.60
2018-05-27T06:05:09.234Z,70.70
2018-05-27T06:07:36.713Z,72.00
2018-05-27T06:10:04.197Z,71.30
2018-05-27T06:12:31.673Z,71.70
2018-05-27T06:14:59.153Z,72.60
2018-05-27T06:17:27.385Z,72.70
2018-05-27T06:19:54.865Z,72.70
2018-05-27T06:22:23.101Z,70.00
2018-05-27T06:24:50.570Z,69.90
2018-05-27T06:27:18.049Z,63.50
2018-05-27T06:29:46.290Z,60.30
2018-05-27T06:32:13.781Z,60.30
2018-05-27T06:34:42.022Z,64.30
2018-05-27T06:37:09.501Z,64.20
2018-05-27T06:39:36.965Z,65.90
2018-05-27T06:42:05.244Z,65.70
2018-05-27T06:44:33.485Z,66.80
2018-05-27T06:47:00.954Z,66.80
2018-05-27T06:49:28.452Z,67.80
2018-05-27T06:51:55.921Z,69.30
2018-05-27T06:54:23.409Z,69.10
2018-05-27T06:56:50.874Z,68.40
2018-05-27T06:59:18.362Z,67.80
2018-05-27T07:01:46.592Z,66.20
2018-05-27T07:04:15.205Z,64.70
2018-05-27T07:06:42.669Z,65.50
2018-05-27T07:09:11.197Z,66.60
2018-05-27T07:11:38.708Z,66.60
2018-05-27T07:14:06.937Z,65.60
2018-05-27T07:16:34.422Z,65.60
2018-05-27T07:19:02.669Z,54.80
2018-05-27T07:21:30.153Z,54.70
2018-05-27T07:23:57.629Z,49.50
2018-05-27T07:26:26.194Z,44.10
2018-05-27T07:28:53.656Z,44.00
2018-05-27T07:31:21.891Z,40.70
2018-05-27T07:33:49.373Z,40.60
2018-05-27T07:36:16.841Z,42.20
2018-05-27T07:38:45.089Z,44.30
2018-05-27T07:41:12.557Z,44.20
2018-05-27T07:43:40.037Z,49.40
2018-05-27T07:46:07.505Z,52.50
2018-05-27T07:48:34.993Z,52.00
2018-05-27T07:51:02.530Z,52.00
2018-05-27T07:53:30.298Z,50.00
2018-05-27T07:55:57.761Z,50.00
2018-05-27T07:58:25.331Z,48.80
2018-05-27T08:00:52.741Z,44.90
2018-05-27T08:03:20.206Z,43.00
2018-05-27T08:05:47.696Z,43.60
2018-05-27T08:08:15.176Z,41.20
2018-05-27T08:10:42.705Z,40.60
2018-05-27T08:13:10.177Z,42.70
2018-05-27T08:15:37.645Z,42.90
2018-05-27T08:18:05.133Z,44.00
2018-05-27T08:20:32.603Z,45.80
2018-05-27T08:23:00.092Z,46.40
2018-05-27T08:25:27.561Z,44.10
2018-05-27T08:27:55.049Z,43.60
2018-05-27T08:30:23.290Z,46.50
2018-05-27T08:32:50.757Z,46.50
2018-05-27T08:35:18.236Z,47.70
2018-05-27T09:01:06.015Z,43.90
2018-05-27T09:03:33.488Z,44.50
2018-05-27T09:06:00.966Z,41.80
2018-05-27T09:08:28.457Z,39.10
2018-05-27T09:10:55.925Z,38.00
2018-05-27T09:13:24.464Z,37.30
2018-05-27T09:15:51.941Z,37.30
2018-05-27T09:25:47.034Z,36.20
2018-05-27T09:28:14.514Z,32.20
2018-05-27T09:30:41.997Z,31.80
2018-05-27T09:33:09.461Z,31.90
2018-05-27T10:47:32.962Z,39.50
2018-05-27T10:50:01.194Z,46.40
2018-05-27T10:52:28.668Z,46.40
2018-05-27T10:54:56.138Z,46.80
2018-05-27T10:57:24.396Z,49.00
2018-05-27T10:59:51.864Z,49.00
2018-05-27T11:02:20.131Z,52.30
2018-05-27T11:04:47.597Z,51.50
2018-05-27T11:07:15.066Z,53.10
2018-05-27T11:09:43.314Z,56.30
2018-05-27T11:12:10.828Z,56.30
2018-05-27T11:14:39.049Z,59.20
2018-05-27T11:17:06.525Z,59.20
2018-05-27T11:19:34.773Z,64.50
2018-05-27T11:24:31.886Z,70.90
2018-05-27T11:27:00.094Z,71.00
2018-05-27T11:29:27.569Z,71.40
2018-05-27T11:31:55.084Z,72.50
2018-05-27T11:34:22.557Z,76.90
2018-05-27T11:36:50.061Z,72.60
2018-05-27T11:39:18.312Z,75.70
2018-05-27T11:41:45.793Z,75.30
2018-05-27T11:44:14.023Z,72.20
2018-05-27T11:46:41.506Z,72.20
2018-05-27T11:49:08.973Z,71.90
2018-05-27T11:51:37.208Z,70.90
2018-05-27T11:54:04.753Z,71.50
2018-05-27T11:56:32.239Z,70.90
2018-05-27T11:58:59.721Z,68.90
2018-05-27T12:01:27.954Z,70.40
2018-05-27T12:03:55.457Z,70.60
2018-05-27T12:06:23.705Z,71.20
2018-05-27T12:08:51.174Z,71.20
2018-05-27T12:11:19.429Z,73.30
2018-05-27T12:13:46.897Z,73.30
2018-05-27T12:16:14.380Z,72.40
2018-05-27T12:18:41.850Z,73.70
2018-05-27T12:21:09.341Z,75.00
2018-05-27T12:23:36.817Z,75.00
2018-05-27T12:26:04.356Z,76.30
2018-05-27T12:28:31.824Z,77.90
2018-05-27T12:30:59.298Z,80.80
2018-05-27T12:33:27.554Z,82.60
2018-05-27T12:35:55.029Z,82.60
2018-05-27T12:38:23.285Z,86.30
2018-05-27T12:40:50.761Z,86.40
2018-05-27T12:43:19.009Z,86.20
2018-05-27T12:45:46.479Z,86.10
2018-05-27T12:48:13.961Z,89.70
2018-05-27T12:50:42.197Z,86.30
2018-05-27T12:53:09.665Z,86.10
2018-05-27T12:55:37.147Z,88.50
2018-05-27T12:58:05.381Z,88.10
2018-05-27T13:00:32.866Z,88.10
2018-05-27T13:03:01.106Z,82.60
2018-05-27T13:05:28.590Z,82.50
2018-05-27T13:07:56.094Z,75.60
2018-05-27T13:10:23.576Z,81.40
2018-05-27T13:12:51.044Z,77.20
2018-05-27T13:15:18.523Z,76.20
2018-05-27T13:17:46.781Z,74.50
2018-05-27T13:20:14.258Z,74.50
2018-05-27T13:22:42.509Z,63.20
2018-05-27T13:25:09.976Z,63.10
2018-05-27T13:27:38.230Z,55.20
2018-05-27T13:30:05.777Z,55.10
2018-05-27T13:32:33.449Z,52.30
2018-05-27T13:35:00.925Z,52.90
2018-05-27T13:37:29.165Z,51.30
2018-05-27T13:39:56.649Z,51.20
2018-05-27T13:42:24.120Z,49.50
2018-05-27T13:44:52.373Z,50.50
2018-05-27T13:47:19.841Z,50.50
2018-05-27T13:49:48.090Z,53.60
2018-05-27T13:52:15.565Z,53.40
2018-05-27T13:54:43.821Z,48.80
2018-05-27T13:57:11.292Z,48.70
2018-05-27T13:59:38.766Z,41.30
2018-05-27T14:02:07.025Z,42.00
2018-05-27T14:04:35.273Z,44.80
2018-05-27T14:07:02.763Z,44.80
2018-05-27T14:09:30.997Z,45.70
2018-05-27T14:11:58.476Z,45.70
2018-05-27T14:14:25.950Z,47.50
2018-05-27T14:16:54.205Z,45.50
2018-05-27T14:19:21.677Z,45.40
2018-05-27T14:21:49.905Z,44.50
2018-05-27T14:24:17.432Z,44.50
2018-05-27T14:26:45.645Z,42.60
2018-05-27T14:29:13.125Z,42.50
2018-05-27T14:31:40.592Z,43.30
2018-05-27T14:34:08.842Z,41.40
2018-05-27T14:36:36.318Z,41.40
2018-05-27T14:39:05.242Z,45.20
2018-05-27T14:41:32.725Z,45.30
2018-05-27T14:44:00.200Z,46.10
2018-05-27T14:46:27.686Z,47.70
2018-05-27T14:48:55.916Z,47.00
2018-05-27T14:51:23.403Z,47.00
2018-05-27T14:53:51.653Z,43.40
2018-05-27T14:56:19.479Z,43.40
2018-05-27T14:58:46.953Z,46.20
2018-05-27T15:01:14.445Z,46.20
2018-05-27T15:03:42.787Z,42.80
2018-05-27T15:06:10.258Z,42.10
2018-05-27T15:08:37.749Z,42.60
2018-05-27T15:11:05.981Z,42.50
2018-05-27T15:13:33.468Z,42.50
2018-05-27T15:16:01.713Z,44.00
2018-05-27T15:18:29.202Z,44.00
2018-05-27T15:20:57.444Z,46.30
2018-05-27T15:23:24.941Z,46.30
2018-05-27T15:25:53.177Z,49.30
2018-05-27T15:28:20.651Z,49.30
2018-05-27T15:30:48.134Z,50.00
2018-05-27T15:33:16.377Z,50.70
2018-05-27T15:35:43.861Z,50.70
2018-05-27T15:38:12.098Z,49.60
2018-05-27T15:40:39.578Z,49.60
2018-05-27T15:43:07.813Z,53.00
2018-05-27T15:45:35.305Z,52.50
2018-05-27T15:48:03.541Z,52.00
2018-05-27T15:50:31.017Z,52.00
2018-05-27T15:52:58.515Z,51.90
2018-05-27T15:55:25.987Z,52.50
2018-05-27T15:57:53.475Z,54.70
2018-05-27T16:00:20.949Z,56.20
2018-05-27T16:02:48.428Z,56.80
2018-05-27T16:05:16.669Z,58.70
2018-05-27T16:07:44.173Z,58.60
2018-05-27T16:10:11.639Z,59.40
2018-05-27T16:12:39.112Z,60.10
2018-05-27T16:15:06.604Z,60.60
2018-05-27T16:17:34.077Z,61.90
2018-05-27T16:20:02.353Z,64.10
2018-05-27T16:22:29.804Z,64.10
2018-05-27T16:24:58.057Z,65.30
2018-05-27T16:27:25.533Z,65.30
2018-05-27T16:29:53.806Z,67.10
2018-05-27T16:32:22.063Z,67.70
2018-05-27T16:34:49.525Z,67.80
2018-05-27T16:37:17.026Z,68.40
2018-05-27T16:39:44.499Z,67.90
2018-05-27T16:42:11.991Z,68.50
2018-05-27T16:44:39.469Z,69.80
2018-05-27T16:47:06.960Z,71.30
2018-05-27T16:49:34.424Z,71.40
2018-05-27T16:52:01.949Z,71.90
2018-05-27T16:54:30.165Z,71.10
2018-05-27T16:56:57.637Z,71.50
2018-05-27T16:59:25.125Z,71.70
2018-05-27T17:01:53.358Z,71.70
2018-05-27T17:04:20.837Z,71.70
2018-05-27T17:06:48.305Z,72.10
2018-05-27T17:09:16.557Z,74.00
2018-05-27T17:11:44.025Z,73.90
2018-05-27T17:14:11.583Z,75.30
2018-05-27T17:16:39.038Z,75.90
2018-05-27T17:19:07.277Z,75.70
2018-05-27T17:21:34.773Z,75.70
2018-05-27T17:24:03.005Z,75.70
2018-05-27T17:26:30.489Z,75.70
2018-05-27T17:28:57.961Z,76.30
2018-05-27T17:31:26.217Z,76.00
2018-05-27T17:33:53.689Z,76.00
2018-05-27T17:36:22.269Z,75.70
2018-05-27T17:38:50.505Z,75.40
2018-05-27T17:41:17.978Z,75.40
2018-05-27T17:43:45.465Z,75.40
2018-05-27T17:46:13.704Z,75.00
2018-05-27T17:48:41.188Z,75.00
2018-05-27T17:51:09.421Z,74.40
2018-05-27T17:53:37.685Z,74.50
2018-05-27T17:56:05.157Z,74.50
2018-05-27T17:58:32.645Z,73.80
2018-05-27T18:01:00.881Z,74.60
2018-05-27T18:03:28.349Z,74.60
2018-05-27T18:05:55.832Z,75.30
2018-05-27T18:08:24.077Z,74.50
2018-05-27T18:10:51.560Z,74.60
2018-05-27T18:13:19.796Z,75.20
2018-05-27T18:15:47.286Z,75.10
2018-05-27T18:18:14.758Z,77.10
2018-05-27T18:20:43.014Z,77.60
2018-05-27T18:23:10.485Z,77.60
2018-05-27T18:25:38.717Z,79.10
2018-05-27T18:28:06.969Z,80.30
2018-05-27T18:30:34.443Z,80.70
2018-05-27T18:33:01.928Z,81.80
2018-05-27T18:35:29.396Z,83.90
2018-05-27T18:37:57.653Z,84.50
2018-05-27T18:40:25.125Z,84.50
2018-05-27T18:42:53.379Z,84.40
2018-05-27T18:45:20.852Z,84.40
2018-05-27T18:47:49.085Z,88.60
2018-05-27T18:50:16.573Z,88.50
2018-05-27T18:52:44.051Z,90.00
2018-05-27T18:55:12.309Z,91.70
2018-05-27T18:57:40.557Z,92.80
2018-05-27T19:00:08.038Z,92.60
2018-05-27T19:02:36.276Z,94.20
2018-05-27T19:05:03.762Z,94.20
